Time;durP1;ratioP1;P1;durP2;ratioP2;P2;SDS_P1;SDS_P2;PMS_P1;PMS_P2;Temp;Humidity;BMP_temperature;BMP_pressure;BME280_temperature;BME280_humidity;BME280_pressure;Samples;Min_cycle;Max_cycle;Signal;HPM_P1;HPM_P2
2022/03/03 00:01:19;;;;;;;;;;;22.40;44.00;;;;;;6322810;27;19970;-49
2022/03/03 00:04:20;;;;;;;;;;;22.20;44.00;;;;;;6322980;27;19931;-47
2022/03/03 00:07:22;;;;;;;;;;;22.40;44.10;;;;;;6325117;27;19923;-49
2022/03/03 00:10:23;;;;;;;;;;;22.20;44.00;;;;;;6324681;27;19931;-50
2022/03/03 00:13:26;;;;;;;;;;;22.40;44.00;;;;;;6326577;27;19938;-49
2022/03/03 00:16:27;;;;;;;;;;;22.20;43.80;;;;;;6323007;27;20001;-50
2022/03/03 00:19:29;;;;;;;;;;;22.60;44.10;;;;;;6323691;27;19931;-48
2022/03/03 00:22:31;;;;;;;;;;;22.70;43.90;;;;;;6323755;27;20688;-50
2022/03/03 00:25:33;;;;;;;;;;;22.40;43.50;;;;;;6321488;27;19967;-46
2022/03/03 00:28:35;;;;;;;;;;;22.20;43.70;;;;;;6323524;27;20154;-47
2022/03/03 00:31:37;;;;;;;;;;;22.40;44.00;;;;;;6324230;27;19981;-50
2022/03/03 00:34:38;;;;;;;;;;;22.50;44.20;;;;;;6324493;27;19923;-48
2022/03/03 00:37:40;;;;;;;;;;;22.30;44.00;;;;;;6323333;27;20022;-46
2022/03/03 00:40:41;;;;;;;;;;;22.20;44.10;;;;;;6321876;27;19974;-46
2022/03/03 00:43:43;;;;;;;;;;;22.50;44.20;;;;;;6325136;27;19928;-48
2022/03/03 00:46:45;;;;;;;;;;;22.00;43.80;;;;;;6319417;27;19931;-49
2022/03/03 00:49:46;;;;;;;;;;;22.20;43.90;;;;;;6302826;27;19929;-47
2022/03/03 00:52:48;;;;;;;;;;;22.40;44.00;;;;;;6307712;27;20039;-48
2022/03/03 00:55:49;;;;;;;;;;;22.40;43.90;;;;;;6323231;27;20039;-47
2022/03/03 00:58:51;;;;;;;;;;;22.40;44.10;;;;;;6307085;27;19930;-48
2022/03/03 01:01:53;;;;;;;;;;;22.40;44.10;;;;;;6321697;27;19934;-48
2022/03/03 01:04:55;;;;;;;;;;;22.30;44.10;;;;;;6325209;27;20007;-48
2022/03/03 01:07:56;;;;;;;;;;;22.40;44.30;;;;;;6325714;27;19931;-49
2022/03/03 01:10:58;;;;;;;;;;;22.40;44.00;;;;;;6322563;27;20842;-52
2022/03/03 01:14:00;;;;;;;;;;;22.40;44.10;;;;;;6303468;27;19934;-48
2022/03/03 01:17:01;;;;;;;;;;;22.30;44.20;;;;;;6318210;27;19931;-49
2022/03/03 01:20:04;;;;;;;;;;;22.60;44.40;;;;;;6326156;27;19931;-47
2022/03/03 01:23:05;;;;;;;;;;;22.60;43.80;;;;;;6318732;27;20469;-47
2022/03/03 01:26:07;;;;;;;;;;;22.30;44.20;;;;;;6317194;27;19938;-50
2022/03/03 01:29:09;;;;;;;;;;;22.10;44.00;;;;;;6322193;27;20844;-47
2022/03/03 01:32:11;;;;;;;;;;;22.80;44.40;;;;;;6330236;27;19965;-50
2022/03/03 01:35:13;;;;;;;;;;;22.00;43.90;;;;;;6325291;27;20680;-51
2022/03/03 01:38:14;;;;;;;;;;;22.20;44.10;;;;;;6329706;27;20479;-50
2022/03/03 01:41:15;;;;;;;;;;;22.20;44.20;;;;;;6326422;27;20042;-50
2022/03/03 01:44:17;;;;;;;;;;;22.40;44.00;;;;;;6328740;27;19923;-49
2022/03/03 01:47:21;;;;;;;;;;;22.00;44.00;;;;;;6322897;27;20038;-49
2022/03/03 01:50:22;;;;;;;;;;;22.30;44.10;;;;;;6328791;27;20910;-47
2022/03/03 01:53:23;;;;;;;;;;;22.40;44.20;;;;;;6328773;27;20885;-49
2022/03/03 01:56:25;;;;;;;;;;;22.20;44.30;;;;;;6329026;27;19931;-49
2022/03/03 01:59:27;;;;;;;;;;;22.50;43.80;;;;;;6334115;27;19954;-48
2022/03/03 02:02:29;;;;;;;;;;;22.40;44.30;;;;;;6317271;27;19927;-47
2022/03/03 02:05:31;;;;;;;;;;;22.00;44.10;;;;;;6333914;27;20836;-51
2022/03/03 02:08:32;;;;;;;;;;;22.40;43.60;;;;;;6333569;27;19923;-49
2022/03/03 02:11:34;;;;;;;;;;;22.40;44.40;;;;;;6335208;27;19970;-50
2022/03/03 02:14:43;;;;;;;;;;;22.30;44.20;;;;;;6334539;27;20916;-52
2022/03/03 02:17:45;;;;;;;;;;;21.90;44.00;;;;;;6335026;27;19927;-49
2022/03/03 02:20:48;;;;;;;;;;;22.20;44.30;;;;;;6317952;27;20018;-47
2022/03/03 02:23:49;;;;;;;;;;;22.50;44.40;;;;;;6337532;27;20909;-49
2022/03/03 02:26:51;;;;;;;;;;;22.40;44.50;;;;;;6333553;27;19973;-51
2022/03/03 02:29:53;;;;;;;;;;;22.00;44.30;;;;;;6309883;27;19950;-50
2022/03/03 02:32:54;;;;;;;;;;;22.20;44.30;;;;;;6330951;27;20440;-49
2022/03/03 02:35:57;;;;;;;;;;;22.40;44.50;;;;;;6326661;27;20189;-47
2022/03/03 02:38:59;;;;;;;;;;;22.20;44.40;;;;;;6323832;27;20887;-49
2022/03/03 02:42:00;;;;;;;;;;;22.30;44.30;;;;;;6325092;27;19931;-54
2022/03/03 02:45:02;;;;;;;;;;;22.30;44.50;;;;;;6308814;27;20281;-49
2022/03/03 02:48:04;;;;;;;;;;;22.10;44.30;;;;;;6311112;27;20349;-49
2022/03/03 02:51:07;;;;;;;;;;;22.20;44.50;;;;;;6327309;27;19999;-46
2022/03/03 02:54:08;;;;;;;;;;;22.70;44.70;;;;;;6325691;27;19927;-48
2022/03/03 03:00:28;;;;;;;;;;;22.20;44.40;;;;;;6323211;27;19931;-48
2022/03/03 03:03:30;;;;;;;;;;;22.20;44.40;;;;;;6306500;27;19934;-48
2022/03/03 03:06:32;;;;;;;;;;;21.90;44.20;;;;;;6327397;27;20432;-49
2022/03/03 03:09:33;;;;;;;;;;;22.30;44.40;;;;;;6325493;27;20282;-47
2022/03/03 03:12:35;;;;;;;;;;;22.00;44.30;;;;;;6325123;27;20267;-48
2022/03/03 03:15:36;;;;;;;;;;;22.10;44.40;;;;;;6327054;27;20321;-48
2022/03/03 03:18:39;;;;;;;;;;;22.10;44.50;;;;;;6328412;27;20465;-47
2022/03/03 03:21:41;;;;;;;;;;;22.00;44.40;;;;;;6329212;27;19928;-50
2022/03/03 03:24:43;;;;;;;;;;;22.60;44.60;;;;;;6327995;27;20046;-48
2022/03/03 03:27:45;;;;;;;;;;;22.00;44.10;;;;;;6326086;27;19931;-51
2022/03/03 03:30:47;;;;;;;;;;;21.80;44.40;;;;;;6328656;27;20019;-50
2022/03/03 03:33:48;;;;;;;;;;;22.00;44.20;;;;;;6314399;27;19927;-46
2022/03/03 03:36:50;;;;;;;;;;;21.90;44.40;;;;;;6331980;27;20558;-48
2022/03/03 03:39:52;;;;;;;;;;;22.10;44.60;;;;;;6326273;27;19985;-50
2022/03/03 03:42:53;;;;;;;;;;;22.30;44.60;;;;;;6326422;27;20395;-46
2022/03/03 03:45:54;;;;;;;;;;;22.30;44.60;;;;;;6324698;27;20420;-48
2022/03/03 03:48:56;;;;;;;;;;;22.20;44.80;;;;;;6327643;27;19927;-51
2022/03/03 03:51:58;;;;;;;;;;;22.20;44.70;;;;;;6323302;27;19934;-48
2022/03/03 03:54:59;;;;;;;;;;;21.80;44.40;;;;;;6326370;27;20137;-50
2022/03/03 03:58:01;;;;;;;;;;;22.40;44.90;;;;;;6328096;27;20426;-47
2022/03/03 04:01:03;;;;;;;;;;;21.90;44.60;;;;;;6326917;27;20091;-46
2022/03/03 04:04:04;;;;;;;;;;;22.20;44.70;;;;;;6328116;27;19938;-47
2022/03/03 04:07:07;;;;;;;;;;;21.90;44.60;;;;;;6327945;27;19928;-48
2022/03/03 04:10:09;;;;;;;;;;;22.20;44.70;;;;;;6323460;27;20345;-50
2022/03/03 04:13:10;;;;;;;;;;;21.80;44.50;;;;;;6304973;27;20631;-50
2022/03/03 04:16:12;;;;;;;;;;;22.20;44.80;;;;;;6327111;27;19927;-45
2022/03/03 04:19:14;;;;;;;;;;;21.90;44.60;;;;;;6325639;27;19930;-46
2022/03/03 04:22:17;;;;;;;;;;;22.10;44.80;;;;;;6328836;27;19997;-45
2022/03/03 04:25:18;;;;;;;;;;;22.40;44.50;;;;;;6330861;27;19959;-48
2022/03/03 04:28:19;;;;;;;;;;;22.00;44.80;;;;;;6332155;27;19934;-45
2022/03/03 04:31:21;;;;;;;;;;;22.00;44.70;;;;;;6331496;27;19934;-46
2022/03/03 04:34:22;;;;;;;;;;;22.10;44.90;;;;;;6331738;27;19927;-46
2022/03/03 04:37:24;;;;;;;;;;;21.90;44.70;;;;;;6325714;27;20156;-46
2022/03/03 04:40:25;;;;;;;;;;;22.20;44.70;;;;;;6331814;27;20354;-46
2022/03/03 04:43:27;;;;;;;;;;;21.90;44.60;;;;;;6332602;27;19927;-46
2022/03/03 04:46:28;;;;;;;;;;;22.40;44.90;;;;;;6326197;27;19923;-47
2022/03/03 04:49:32;;;;;;;;;;;21.90;44.80;;;;;;6329949;27;20699;-46
2022/03/03 04:52:34;;;;;;;;;;;22.20;44.70;;;;;;6313714;27;19939;-46
2022/03/03 04:55:35;;;;;;;;;;;22.20;44.80;;;;;;6331228;27;20508;-47
2022/03/03 04:58:41;;;;;;;;;;;22.30;44.90;;;;;;6312035;27;20034;-51
2022/03/03 05:01:42;;;;;;;;;;;22.40;45.10;;;;;;6330052;27;20021;-46
2022/03/03 05:04:44;;;;;;;;;;;22.30;44.20;;;;;;6328016;27;29685;-48
2022/03/03 05:07:46;;;;;;;;;;;22.30;44.90;;;;;;6326126;27;20008;-50
2022/03/03 05:10:47;;;;;;;;;;;21.90;44.70;;;;;;6327717;27;20053;-50
2022/03/03 05:13:49;;;;;;;;;;;22.20;44.30;;;;;;6326158;27;20029;-51
2022/03/03 05:16:50;;;;;;;;;;;21.70;44.80;;;;;;6313373;27;19995;-47
2022/03/03 05:19:51;;;;;;;;;;;22.20;44.80;;;;;;6327063;27;20027;-46
2022/03/03 05:22:53;;;;;;;;;;;21.90;44.80;;;;;;6322313;27;26472;-47
2022/03/03 05:25:55;;;;;;;;;;;22.30;44.90;;;;;;6324495;27;20059;-46
2022/03/03 05:28:56;;;;;;;;;;;22.70;45.40;;;;;;6327506;27;19932;-46
2022/03/03 05:31:58;;;;;;;;;;;22.20;45.10;;;;;;6332241;27;20875;-49
2022/03/03 05:34:59;;;;;;;;;;;21.90;44.90;;;;;;6330081;27;20861;-51
2022/03/03 05:38:01;;;;;;;;;;;22.00;45.00;;;;;;6328550;27;19991;-48
2022/03/03 05:41:03;;;;;;;;;;;21.90;44.80;;;;;;6330706;27;19974;-47
2022/03/03 05:44:05;;;;;;;;;;;22.20;44.90;;;;;;6329112;27;20826;-49
2022/03/03 05:47:07;;;;;;;;;;;22.20;44.90;;;;;;6327068;27;19978;-48
2022/03/03 05:50:09;;;;;;;;;;;22.00;44.70;;;;;;6330565;27;20075;-46
2022/03/03 05:53:11;;;;;;;;;;;22.00;44.90;;;;;;6322567;27;19934;-45
2022/03/03 05:56:14;;;;;;;;;;;21.80;44.80;;;;;;6325294;27;29077;-46
2022/03/03 05:59:16;;;;;;;;;;;22.10;44.90;;;;;;6328508;27;19924;-46
2022/03/03 06:02:18;;;;;;;;;;;22.30;45.10;;;;;;6327665;27;20845;-49
2022/03/03 06:05:20;;;;;;;;;;;21.90;44.90;;;;;;6301556;27;19933;-47
2022/03/03 06:08:26;;;;;;;;;;;22.20;45.10;;;;;;6325438;27;19928;-49
2022/03/03 06:11:27;;;;;;;;;;;22.10;45.10;;;;;;6323846;27;20045;-45
2022/03/03 06:14:30;;;;;;;;;;;22.00;45.10;;;;;;6318697;27;20046;-49
2022/03/03 06:17:34;;;;;;;;;;;21.90;44.90;;;;;;6321509;27;20898;-46
2022/03/03 06:20:36;;;;;;;;;;;22.20;45.20;;;;;;6325468;27;19931;-48
2022/03/03 06:23:38;;;;;;;;;;;22.10;45.00;;;;;;6323592;27;20025;-46
2022/03/03 06:26:39;;;;;;;;;;;22.20;45.00;;;;;;6319584;27;20255;-49
2022/03/03 06:29:41;;;;;;;;;;;22.30;45.30;;;;;;6320831;27;19938;-49
2022/03/03 06:32:42;;;;;;;;;;;22.20;45.30;;;;;;6327336;27;19997;-47
2022/03/03 06:35:43;;;;;;;;;;;21.80;45.00;;;;;;6322714;27;19973;-47
2022/03/03 06:38:45;;;;;;;;;;;22.10;45.20;;;;;;6308998;27;19930;-47
2022/03/03 06:41:47;;;;;;;;;;;21.60;44.80;;;;;;6322602;27;20026;-49
2022/03/03 06:44:48;;;;;;;;;;;21.80;44.90;;;;;;6300712;27;20829;-47
2022/03/03 06:47:50;;;;;;;;;;;21.90;45.10;;;;;;6317832;27;19934;-47
2022/03/03 06:50:52;;;;;;;;;;;22.10;44.80;;;;;;6318674;27;20042;-48
2022/03/03 06:53:55;;;;;;;;;;;21.80;44.70;;;;;;6316262;27;20035;-47
2022/03/03 06:56:57;;;;;;;;;;;22.20;44.90;;;;;;6319080;27;20371;-49
2022/03/03 07:00:00;;;;;;;;;;;22.30;44.90;;;;;;6313553;27;19975;-47
2022/03/03 07:03:02;;;;;;;;;;;22.20;44.80;;;;;;6316560;27;20695;-49
2022/03/03 07:06:04;;;;;;;;;;;22.00;44.70;;;;;;6313760;27;19940;-45
2022/03/03 07:09:08;;;;;;;;;;;22.10;44.80;;;;;;6314251;27;20098;-46
2022/03/03 07:12:10;;;;;;;;;;;22.20;44.80;;;;;;6306757;27;19939;-47
2022/03/03 07:15:11;;;;;;;;;;;22.10;44.70;;;;;;6307949;27;19965;-46
2022/03/03 07:18:15;;;;;;;;;;;22.10;44.80;;;;;;6304917;27;21621;-46
2022/03/03 07:21:24;;;;;;;;;;;22.40;44.80;;;;;;6282558;27;19935;-46
2022/03/03 07:24:28;;;;;;;;;;;22.10;44.70;;;;;;6290421;27;20866;-46
2022/03/03 07:27:30;;;;;;;;;;;22.20;44.60;;;;;;6295120;27;19934;-47
2022/03/03 07:30:31;;;;;;;;;;;22.40;44.60;;;;;;6304605;27;19931;-48
2022/03/03 07:33:40;;;;;;;;;;;22.30;44.80;;;;;;6294604;27;20073;-48
2022/03/03 07:36:43;;;;;;;;;;;22.80;44.90;;;;;;6292445;27;21784;-46
2022/03/03 07:39:45;;;;;;;;;;;22.40;44.60;;;;;;6292315;27;20063;-48
2022/03/03 07:42:47;;;;;;;;;;;22.40;44.60;;;;;;6283332;27;19985;-47
2022/03/03 07:45:48;;;;;;;;;;;22.60;44.70;;;;;;6264556;27;21228;-45
2022/03/03 07:48:53;;;;;;;;;;;22.10;44.50;;;;;;6248333;27;20049;-46
2022/03/03 07:51:55;;;;;;;;;;;22.30;44.50;;;;;;6226265;27;19945;-47
2022/03/03 07:54:57;;;;;;;;;;;22.80;44.80;;;;;;6224967;27;19974;-46
2022/03/03 07:57:59;;;;;;;;;;;22.60;44.70;;;;;;6231631;27;19931;-47
2022/03/03 08:01:02;;;;;;;;;;;22.50;44.70;;;;;;6199826;27;19938;-48
2022/03/03 08:04:04;;;;;;;;;;;22.60;44.60;;;;;;6198828;27;19937;-45
2022/03/03 08:07:06;;;;;;;;;;;22.60;44.50;;;;;;6197172;27;20187;-45
2022/03/03 08:10:09;;;;;;;;;;;22.60;44.60;;;;;;6197140;27;19931;-46
2022/03/03 08:13:11;;;;;;;;;;;22.40;44.40;;;;;;6190780;27;19938;-47
2022/03/03 08:16:13;;;;;;;;;;;22.60;44.50;;;;;;6142965;27;19939;-46
2022/03/03 08:19:15;;;;;;;;;;;22.50;44.30;;;;;;6169857;27;20061;-45
2022/03/03 08:22:17;;;;;;;;;;;22.70;44.50;;;;;;6164690;27;22178;-46
2022/03/03 08:25:18;;;;;;;;;;;22.40;44.20;;;;;;6182366;27;19931;-46
2022/03/03 08:28:23;;;;;;;;;;;22.70;44.30;;;;;;6159438;27;19935;-47
2022/03/03 08:31:27;;;;;;;;;;;22.50;44.10;;;;;;6132472;27;19934;-46
2022/03/03 08:34:33;;;;;;;;;;;22.70;44.30;;;;;;6084553;27;20030;-47
2022/03/03 08:37:35;;;;;;;;;;;22.90;44.30;;;;;;6127778;27;22427;-47
2022/03/03 08:40:38;;;;;;;;;;;22.80;44.30;;;;;;6110453;27;19931;-48
2022/03/03 08:43:41;;;;;;;;;;;22.70;44.20;;;;;;6105364;27;19931;-51
2022/03/03 08:46:47;;;;;;;;;;;22.70;43.60;;;;;;6098602;27;19972;-46
2022/03/03 08:49:55;;;;;;;;;;;22.80;44.00;;;;;;6130199;27;20764;-48
2022/03/03 08:53:16;;;;;;;;;;;23.20;44.30;;;;;;6130344;27;22491;-46
2022/03/03 08:56:18;;;;;;;;;;;23.30;44.40;;;;;;6118773;27;19931;-45
2022/03/03 08:59:19;;;;;;;;;;;23.20;44.10;;;;;;6119523;27;20200;-49
2022/03/03 09:02:21;;;;;;;;;;;23.10;44.00;;;;;;6120911;27;19975;-47
2022/03/03 09:05:22;;;;;;;;;;;23.10;44.00;;;;;;6124600;27;19935;-48
2022/03/03 09:08:24;;;;;;;;;;;23.10;44.00;;;;;;6129920;27;19938;-48
2022/03/03 09:11:26;;;;;;;;;;;23.10;43.80;;;;;;6098558;27;19930;-47
2022/03/03 09:14:28;;;;;;;;;;;23.10;43.80;;;;;;6135603;27;22381;-49
2022/03/03 09:17:30;;;;;;;;;;;23.30;43.20;;;;;;6100867;27;20266;-47
2022/03/03 09:20:32;;;;;;;;;;;23.00;43.60;;;;;;6083554;27;19931;-47
2022/03/03 09:23:34;;;;;;;;;;;23.30;43.70;;;;;;6112387;27;21861;-48
2022/03/03 09:26:36;;;;;;;;;;;23.00;43.80;;;;;;6115668;27;20026;-48
2022/03/03 09:29:40;;;;;;;;;;;22.90;43.60;;;;;;6127633;27;19938;-48
2022/03/03 09:32:41;;;;;;;;;;;23.40;43.90;;;;;;6130796;27;19932;-46
2022/03/03 09:35:43;;;;;;;;;;;23.30;43.70;;;;;;6124730;27;20019;-48
2022/03/03 09:38:44;;;;;;;;;;;23.50;44.10;;;;;;6127494;27;20027;-49
2022/03/03 09:41:51;;;;;;;;;;;23.10;43.60;;;;;;6134281;27;19931;-47
2022/03/03 09:44:53;;;;;;;;;;;23.40;43.70;;;;;;6115883;27;19931;-49
2022/03/03 09:47:56;;;;;;;;;;;23.20;43.60;;;;;;6136601;27;21163;-46
2022/03/03 09:50:58;;;;;;;;;;;23.00;43.50;;;;;;6149199;27;19971;-47
2022/03/03 09:53:59;;;;;;;;;;;23.00;43.10;;;;;;6148987;27;21464;-47
2022/03/03 09:57:01;;;;;;;;;;;23.70;44.00;;;;;;6128317;27;19998;-49
2022/03/03 10:00:04;;;;;;;;;;;23.40;43.80;;;;;;6143792;27;19931;-46
2022/03/03 10:03:14;;;;;;;;;;;23.60;43.90;;;;;;6152665;27;22255;-47
2022/03/03 10:06:21;;;;;;;;;;;23.60;43.90;;;;;;6100310;27;19974;-46
2022/03/03 10:09:22;;;;;;;;;;;23.60;44.00;;;;;;6136978;27;23382;-47
2022/03/03 10:12:26;;;;;;;;;;;23.70;43.90;;;;;;6105402;27;20023;-53
2022/03/03 10:15:28;;;;;;;;;;;23.20;43.50;;;;;;6119789;27;19931;-57
2022/03/03 10:18:31;;;;;;;;;;;23.50;43.50;;;;;;6127046;27;19956;-52
2022/03/03 10:21:35;;;;;;;;;;;23.80;44.20;;;;;;6135875;27;20566;-51
2022/03/03 10:24:38;;;;;;;;;;;23.00;43.10;;;;;;6100105;27;19938;-50
2022/03/03 10:27:40;;;;;;;;;;;23.10;43.70;;;;;;6126753;27;20079;-50
2022/03/03 10:30:58;;;;;;;;;;;23.50;43.60;;;;;;6107325;27;20424;-51
2022/03/03 10:34:01;;;;;;;;;;;23.40;43.70;;;;;;6120560;27;19978;-54
2022/03/03 10:37:06;;;;;;;;;;;23.60;43.90;;;;;;6111621;27;19931;-51
2022/03/03 10:40:09;;;;;;;;;;;23.60;43.80;;;;;;6128488;27;19937;-50
2022/03/03 10:43:12;;;;;;;;;;;23.70;43.80;;;;;;6122372;27;19930;-52
2022/03/03 10:46:14;;;;;;;;;;;23.60;43.70;;;;;;6130980;27;21191;-53
2022/03/03 10:49:18;;;;;;;;;;;23.50;43.60;;;;;;6105142;27;20152;-50
2022/03/03 10:52:20;;;;;;;;;;;24.00;43.90;;;;;;6114042;27;21981;-51
2022/03/03 10:55:22;;;;;;;;;;;23.60;43.60;;;;;;6090588;27;20006;-51
2022/03/03 10:58:43;;;;;;;;;;;23.30;43.50;;;;;;6121927;27;19977;-50
2022/03/03 11:01:45;;;;;;;;;;;23.70;43.40;;;;;;6060444;27;19939;-48
2022/03/03 11:04:46;;;;;;;;;;;23.80;43.20;;;;;;6098889;27;19931;-53
2022/03/03 11:07:49;;;;;;;;;;;23.50;43.20;;;;;;6131841;27;19985;-51
2022/03/03 11:10:50;;;;;;;;;;;23.80;43.40;;;;;;6117243;27;20041;-51
2022/03/03 11:13:53;;;;;;;;;;;23.70;43.40;;;;;;6141284;27;19931;-55
2022/03/03 11:16:55;;;;;;;;;;;23.50;43.40;;;;;;6136953;27;19972;-51
2022/03/03 11:19:59;;;;;;;;;;;23.40;43.30;;;;;;6146896;27;19931;-47
2022/03/03 11:23:00;;;;;;;;;;;23.40;43.40;;;;;;6137762;27;20041;-50
2022/03/03 11:26:02;;;;;;;;;;;23.50;43.60;;;;;;6119481;27;19934;-49
2022/03/03 11:29:10;;;;;;;;;;;23.30;43.40;;;;;;6146382;27;19931;-50
2022/03/03 11:32:15;;;;;;;;;;;23.70;43.80;;;;;;6149282;27;20046;-49
2022/03/03 11:35:20;;;;;;;;;;;23.40;42.90;;;;;;6178999;27;19931;-57
2022/03/03 11:38:22;;;;;;;;;;;23.50;44.00;;;;;;6188434;27;20007;-52
2022/03/03 11:41:44;;;;;;;;;;;23.60;43.90;;;;;;6169715;27;19931;-50
2022/03/03 11:44:46;;;;;;;;;;;23.60;43.60;;;;;;6174534;27;20053;-49
2022/03/03 11:47:48;;;;;;;;;;;23.70;43.90;;;;;;6209533;27;19939;-52
2022/03/03 11:50:51;;;;;;;;;;;23.40;43.80;;;;;;6208604;27;19931;-49
2022/03/03 11:53:54;;;;;;;;;;;23.80;43.70;;;;;;6202609;27;20092;-51
2022/03/03 11:57:12;;;;;;;;;;;23.70;43.80;;;;;;6217290;27;21961;-48
2022/03/03 12:00:18;;;;;;;;;;;23.30;43.60;;;;;;6213856;27;19934;-51
2022/03/03 12:03:22;;;;;;;;;;;23.40;43.70;;;;;;6206722;27;19935;-49
2022/03/03 12:06:37;;;;;;;;;;;23.60;42.70;;;;;;6198791;27;19932;-50
2022/03/03 12:09:41;;;;;;;;;;;23.70;43.50;;;;;;6203172;27;20061;-47
2022/03/03 12:12:44;;;;;;;;;;;23.70;43.70;;;;;;6191284;27;19934;-50
2022/03/03 12:15:56;;;;;;;;;;;23.50;43.70;;;;;;6178781;27;21181;-50
2022/03/03 12:19:07;;;;;;;;;;;23.90;43.80;;;;;;6194900;27;19931;-49
2022/03/03 12:22:23;;;;;;;;;;;23.70;43.70;;;;;;6217362;27;19945;-51
2022/03/03 12:25:37;;;;;;;;;;;23.20;43.30;;;;;;6218185;27;21074;-51
2022/03/03 12:28:40;;;;;;;;;;;23.80;41.70;;;;;;6220529;27;20951;-57
2022/03/03 12:31:43;;;;;;;;;;;23.90;43.40;;;;;;6223364;27;19938;-54
2022/03/03 12:34:46;;;;;;;;;;;23.80;43.80;;;;;;6194555;27;19931;-51
2022/03/03 12:37:49;;;;;;;;;;;23.50;43.60;;;;;;6189983;27;19931;-47
2022/03/03 12:40:51;;;;;;;;;;;23.90;43.80;;;;;;6174596;27;19931;-48
2022/03/03 12:44:01;;;;;;;;;;;24.10;44.20;;;;;;6201760;27;20113;-47
2022/03/03 12:47:07;;;;;;;;;;;23.40;43.60;;;;;;6183664;27;19931;-48
2022/03/03 12:50:11;;;;;;;;;;;23.70;43.80;;;;;;6194661;27;19937;-51
2022/03/03 12:53:14;;;;;;;;;;;23.80;43.70;;;;;;6174621;27;19938;-48
2022/03/03 12:56:20;;;;;;;;;;;23.60;43.60;;;;;;6142115;27;20065;-51
2022/03/03 12:59:21;;;;;;;;;;;23.60;43.60;;;;;;6136909;27;19939;-52
2022/03/03 13:02:22;;;;;;;;;;;23.70;43.70;;;;;;6107752;27;22075;-46
2022/03/03 13:05:29;;;;;;;;;;;24.40;43.90;;;;;;6096515;27;20028;-48
2022/03/03 13:08:32;;;;;;;;;;;23.90;43.70;;;;;;6112190;27;19931;-50
2022/03/03 13:11:34;;;;;;;;;;;23.90;43.80;;;;;;6119471;27;19931;-51
2022/03/03 13:14:35;;;;;;;;;;;23.80;43.60;;;;;;6123706;27;21510;-46
2022/03/03 13:17:54;;;;;;;;;;;23.90;43.60;;;;;;6113632;27;19992;-49
2022/03/03 13:20:58;;;;;;;;;;;23.60;43.70;;;;;;6105492;27;19937;-54
2022/03/03 13:24:01;;;;;;;;;;;23.80;43.60;;;;;;6115766;27;19937;-47
2022/03/03 13:27:02;;;;;;;;;;;24.10;44.40;;;;;;6089529;27;19937;-45
2022/03/03 13:30:07;;;;;;;;;;;24.00;43.90;;;;;;6130141;27;21274;-49
2022/03/03 13:33:08;;;;;;;;;;;24.00;43.80;;;;;;6078110;27;19978;-50
2022/03/03 13:36:11;;;;;;;;;;;23.70;43.60;;;;;;6093408;27;19938;-46
2022/03/03 13:39:21;;;;;;;;;;;24.00;43.80;;;;;;6058209;27;19932;-47
2022/03/03 13:42:25;;;;;;;;;;;23.90;43.80;;;;;;6104969;27;19937;-49
2022/03/03 13:45:27;;;;;;;;;;;23.50;43.80;;;;;;6065163;27;19936;-48
2022/03/03 13:48:32;;;;;;;;;;;23.70;43.90;;;;;;6065115;27;19931;-45
2022/03/03 13:51:34;;;;;;;;;;;24.20;44.00;;;;;;6063177;27;20811;-46
2022/03/03 13:54:40;;;;;;;;;;;23.40;43.60;;;;;;6071143;27;21038;-48
2022/03/03 13:57:42;;;;;;;;;;;23.40;43.90;;;;;;6097314;27;19972;-49
2022/03/03 14:00:43;;;;;;;;;;;23.40;43.80;;;;;;6048483;27;19938;-50
2022/03/03 14:03:46;;;;;;;;;;;23.90;44.00;;;;;;6024195;27;19938;-46
2022/03/03 14:06:49;;;;;;;;;;;23.50;44.40;;;;;;6036569;27;19931;-50
2022/03/03 14:09:54;;;;;;;;;;;23.50;44.10;;;;;;6063738;27;19935;-48
2022/03/03 14:13:00;;;;;;;;;;;23.50;44.00;;;;;;6095781;27;19963;-49
2022/03/03 14:16:01;;;;;;;;;;;23.80;42.80;;;;;;6092115;27;19938;-51
2022/03/03 14:19:03;;;;;;;;;;;23.70;44.20;;;;;;6063077;27;20054;-48
2022/03/03 14:22:05;;;;;;;;;;;23.60;44.00;;;;;;6109405;27;19938;-48
2022/03/03 14:25:08;;;;;;;;;;;23.90;44.10;;;;;;6097284;27;22742;-47
2022/03/03 14:28:10;;;;;;;;;;;24.40;43.30;;;;;;6055991;27;19931;-48
2022/03/03 14:31:12;;;;;;;;;;;23.50;43.90;;;;;;6073990;27;19938;-47
2022/03/03 14:34:14;;;;;;;;;;;24.00;44.30;;;;;;6103267;27;20070;-52
2022/03/03 14:37:17;;;;;;;;;;;23.70;44.20;;;;;;6077118;27;19931;-46
2022/03/03 14:40:18;;;;;;;;;;;23.90;44.30;;;;;;6072767;27;19931;-47
2022/03/03 14:43:21;;;;;;;;;;;23.40;44.00;;;;;;6087737;27;21684;-50
2022/03/03 14:46:22;;;;;;;;;;;23.50;44.10;;;;;;6105722;27;19956;-51
2022/03/03 14:49:24;;;;;;;;;;;23.90;44.40;;;;;;6089978;27;19968;-51
2022/03/03 14:52:26;;;;;;;;;;;23.50;44.00;;;;;;6093311;27;19978;-49
2022/03/03 14:55:27;;;;;;;;;;;23.50;44.30;;;;;;6131518;27;21233;-51
2022/03/03 14:58:29;;;;;;;;;;;23.30;44.20;;;;;;6120995;27;19935;-55
2022/03/03 15:01:31;;;;;;;;;;;23.40;44.10;;;;;;6084505;27;19938;-50
2022/03/03 15:04:33;;;;;;;;;;;23.60;44.50;;;;;;6095323;27;19932;-51
2022/03/03 15:07:35;;;;;;;;;;;23.30;44.00;;;;;;6041363;27;19931;-49
2022/03/03 15:10:37;;;;;;;;;;;23.40;44.40;;;;;;6092042;27;20908;-52
2022/03/03 15:13:38;;;;;;;;;;;23.80;44.50;;;;;;6098140;27;19939;-47
2022/03/03 15:16:40;;;;;;;;;;;23.40;44.30;;;;;;6089994;27;19936;-50
2022/03/03 15:19:41;;;;;;;;;;;23.70;44.30;;;;;;6102822;27;19931;-51
2022/03/03 15:22:44;;;;;;;;;;;23.70;44.30;;;;;;6092547;27;19931;-46
2022/03/03 15:25:46;;;;;;;;;;;23.60;44.30;;;;;;6091179;27;20965;-48
2022/03/03 15:28:47;;;;;;;;;;;23.20;44.40;;;;;;6089895;27;20526;-49
2022/03/03 15:31:49;;;;;;;;;;;23.70;45.10;;;;;;6076865;27;22150;-49
2022/03/03 15:38:07;;;;;;;;;;;23.40;44.30;;;;;;6102615;27;19931;-48
2022/03/03 15:41:08;;;;;;;;;;;23.30;44.30;;;;;;6105286;27;19932;-49
2022/03/03 15:44:10;;;;;;;;;;;23.40;44.50;;;;;;6097819;27;20941;-48
2022/03/03 15:47:12;;;;;;;;;;;23.70;44.30;;;;;;6124128;27;22261;-52
2022/03/03 15:50:13;;;;;;;;;;;23.70;44.30;;;;;;6097022;27;19931;-46
2022/03/03 15:53:16;;;;;;;;;;;23.40;44.10;;;;;;6101469;27;19931;-50
2022/03/03 15:56:17;;;;;;;;;;;23.70;44.20;;;;;;6108165;27;20513;-50
2022/03/03 15:59:19;;;;;;;;;;;24.00;44.20;;;;;;6079413;27;19931;-53
2022/03/03 16:02:21;;;;;;;;;;;23.90;44.20;;;;;;6084600;27;20053;-46
2022/03/03 16:05:23;;;;;;;;;;;23.70;44.10;;;;;;6065818;27;19938;-51
2022/03/03 16:08:25;;;;;;;;;;;23.70;44.10;;;;;;6080277;27;19932;-52
2022/03/03 16:11:27;;;;;;;;;;;23.80;43.90;;;;;;6076263;27;20023;-49
2022/03/03 16:14:29;;;;;;;;;;;23.50;43.70;;;;;;6107546;27;25996;-53
2022/03/03 16:17:30;;;;;;;;;;;24.10;44.30;;;;;;6096765;27;21883;-54
2022/03/03 16:20:32;;;;;;;;;;;23.80;43.90;;;;;;6100300;27;19978;-52
2022/03/03 16:23:34;;;;;;;;;;;24.00;44.00;;;;;;6117872;27;20585;-51
2022/03/03 16:26:56;;;;;;;;;;;24.00;44.00;;;;;;6068481;27;19935;-52
2022/03/03 16:29:57;;;;;;;;;;;23.40;43.80;;;;;;6119254;27;19931;-52
2022/03/03 16:32:59;;;;;;;;;;;24.10;44.20;;;;;;6110039;27;19937;-48
2022/03/03 16:36:00;;;;;;;;;;;24.00;44.20;;;;;;6103031;27;20080;-50
2022/03/03 16:39:02;;;;;;;;;;;23.70;44.20;;;;;;6102071;27;20446;-51
2022/03/03 16:42:05;;;;;;;;;;;24.00;44.00;;;;;;6104202;27;19935;-53
2022/03/03 16:45:07;;;;;;;;;;;23.90;44.20;;;;;;6121607;27;19931;-51
2022/03/03 16:48:08;;;;;;;;;;;23.50;44.00;;;;;;6128021;27;19931;-52
2022/03/03 16:51:10;;;;;;;;;;;23.80;43.20;;;;;;6136093;27;19974;-52
2022/03/03 16:54:12;;;;;;;;;;;23.80;44.40;;;;;;6128372;27;20089;-55
2022/03/03 16:57:15;;;;;;;;;;;23.70;44.20;;;;;;6139457;27;19931;-52
2022/03/03 17:00:17;;;;;;;;;;;23.80;44.30;;;;;;6159401;27;19931;-49
2022/03/03 17:03:19;;;;;;;;;;;23.80;44.20;;;;;;6181656;27;20012;-54
2022/03/03 17:06:22;;;;;;;;;;;23.90;45.30;;;;;;6182585;27;22967;-55
2022/03/03 17:09:25;;;;;;;;;;;23.90;45.30;;;;;;6189392;27;20301;-55
2022/03/03 17:12:26;;;;;;;;;;;24.20;45.40;;;;;;6206223;27;19931;-52
2022/03/03 17:15:28;;;;;;;;;;;23.70;45.30;;;;;;6203482;27;19967;-55
2022/03/03 17:18:29;;;;;;;;;;;23.50;45.30;;;;;;6206565;27;20019;-53
2022/03/03 17:21:32;;;;;;;;;;;23.60;45.40;;;;;;6215975;27;22069;-53
2022/03/03 17:24:34;;;;;;;;;;;23.40;45.20;;;;;;6238100;27;21302;-53
2022/03/03 17:27:37;;;;;;;;;;;23.70;45.40;;;;;;6238063;27;19937;-55
2022/03/03 17:30:38;;;;;;;;;;;23.50;45.50;;;;;;6253275;27;19937;-53
2022/03/03 17:33:40;;;;;;;;;;;23.50;45.30;;;;;;6261417;27;19931;-54
2022/03/03 17:36:42;;;;;;;;;;;23.70;45.70;;;;;;6266761;27;20120;-61
2022/03/03 17:39:44;;;;;;;;;;;23.60;45.70;;;;;;6265815;27;19935;-57
2022/03/03 17:42:45;;;;;;;;;;;23.30;45.60;;;;;;6266026;27;20054;-54
2022/03/03 17:45:47;;;;;;;;;;;23.50;45.80;;;;;;6265449;27;20077;-51
2022/03/03 17:48:48;;;;;;;;;;;23.20;45.70;;;;;;6267637;27;20050;-54